CheckWX is a tool to help pilots better visualize weather data.  It is not intended as a substitute for an official pre-flight weather briefing.

02:37:12 UTC

EGGW TAF
London Luton Airport
London, United Kingdom
TAF EGGW 060459Z 0606/0706 19012KT 9999 SCT025 BECMG 0606/0609 25010KT TEMPO 0606/0608 7000 -RADZ BKN009 PROB30 TEMPO 0606/0607 3000 RADZ BR BKN004 PROB30 TEMPO 0610/0617 8000 -SHRA BECMG 0618/0621 VRB04KT

Apr-6@
06:00 UTC

Apr-6 @ 06:00 UTC

Apr-7@
06:00 UTC

Apr-7 @ 06:00 UTC

TAF EGGW 060459Z 0606/0706 19012KT 9999 SCT025
Wind
  • 190° at 12 KTS
Cloud Levels
  • Scattered at 2,500' AGL

Apr-6@
06:00 UTC

Apr-6 @ 06:00 UTC

Apr-6@
07:00 UTC

Apr-6 @ 07:00 UTC

PROB30 TEMPO 0606/0607 3000 RADZ BR BKN004

Expired

Conditions
Rain, Drizzle, Mist
Cloud Levels
  • Broken at 400' AGL

Apr-6@
06:00 UTC

Apr-6 @ 06:00 UTC

Apr-6@
08:00 UTC

Apr-6 @ 08:00 UTC

TEMPO 0606/0608 7000 -RADZ BKN009

Expired

Conditions
Light Rain, Light Drizzle
Cloud Levels
  • Broken at 900' AGL

Apr-6@
06:00 UTC

Apr-6 @ 06:00 UTC

Apr-6@
18:00 UTC

Apr-6 @ 18:00 UTC

BECMG 0606/0609 25010KT

Expired

Wind
  • 250° at 10 KTS
Cloud Levels
  • Scattered at 2,500' AGL

Apr-6@
10:00 UTC

Apr-6 @ 10:00 UTC

Apr-6@
17:00 UTC

Apr-6 @ 17:00 UTC

PROB30 TEMPO 0610/0617 8000 -SHRA

Expired

Conditions
Light Showers, Rain
Cloud Levels

Apr-6@
18:00 UTC

Apr-6 @ 18:00 UTC

Apr-7@
06:00 UTC

Apr-7 @ 06:00 UTC

BECMG 0618/0621 VRB04KT

Becoming

Becoming Conditions expected by Mon, Apr 6, 2020 @ 21:00 UTC

Wind
  • Variable at 4 KTS
Cloud Levels
  • Scattered at 2,500' AGL